createdAt,value
2023-07-10T00:02:51.937Z,83.65
2023-07-10T00:06:07.957Z,83.88
2023-07-10T00:09:22.840Z,85.13
2023-07-10T00:12:37.826Z,85.26
2023-07-10T00:15:40.653Z,85.30
2023-07-10T00:18:56.822Z,85.09
2023-07-10T00:22:05.755Z,85.46
2023-07-10T00:25:21.844Z,85.58
2023-07-10T00:28:23.683Z,85.62
2023-07-10T00:31:38.826Z,86.30
2023-07-10T00:34:46.856Z,87.59
2023-07-10T00:38:00.743Z,87.24
2023-07-10T00:41:11.872Z,87.84
2023-07-10T00:44:28.919Z,87.70
2023-07-10T00:47:41.992Z,88.16
2023-07-10T00:50:52.823Z,87.89
2023-07-10T00:54:09.875Z,88.00
2023-07-10T00:57:16.898Z,88.66
2023-07-10T01:00:31.928Z,89.40
2023-07-10T01:03:48.862Z,92.40
2023-07-10T01:07:03.833Z,93.62
2023-07-10T01:10:12.492Z,92.02
2023-07-10T01:13:20.841Z,91.54
2023-07-10T01:16:36.961Z,91.92
2023-07-10T01:19:39.692Z,92.49
2023-07-10T01:22:54.838Z,93.28
2023-07-10T01:26:07.838Z,92.98
2023-07-10T01:29:24.499Z,92.51
2023-07-10T01:32:32.877Z,92.34
2023-07-10T01:35:49.852Z,93.69
2023-07-10T01:39:24.828Z,93.66
2023-07-10T01:42:39.860Z,93.23
2023-07-10T01:45:49.914Z,93.97
2023-07-10T01:49:02.970Z,93.71
2023-07-10T01:52:14.883Z,93.43
2023-07-10T01:55:26.878Z,93.74
2023-07-10T01:58:35.371Z,94.34
2023-07-10T02:01:43.903Z,94.68
2023-07-10T02:04:58.839Z,94.62
2023-07-10T02:08:00.723Z,95.01
2023-07-10T02:11:22.862Z,95.35
2023-07-10T02:14:31.492Z,95.68
2023-07-10T02:17:52.902Z,95.94
2023-07-10T02:21:01.381Z,95.67
2023-07-10T02:24:09.876Z,96.07
2023-07-10T02:27:18.320Z,95.97
2023-07-10T02:30:26.880Z,96.07
2023-07-10T02:33:42.863Z,95.99
2023-07-10T02:36:51.437Z,95.85
2023-07-10T02:39:59.856Z,96.42
2023-07-10T02:43:09.489Z,96.43
2023-07-10T02:46:23.868Z,95.99
2023-07-10T02:49:31.851Z,96.92
2023-07-10T02:52:46.951Z,96.40
2023-07-10T02:55:55.416Z,96.53
2023-07-10T02:59:03.898Z,96.83
2023-07-10T03:02:18.887Z,96.62
2023-07-10T03:05:21.710Z,97.56
2023-07-10T03:08:36.936Z,98.25
2023-07-10T03:11:45.407Z,98.52
2023-07-10T03:14:55.695Z,99.30
2023-07-10T03:18:04.492Z,98.20
2023-07-10T03:21:13.883Z,99.16
2023-07-10T03:24:28.874Z,99.49
2023-07-10T03:27:36.860Z,99.75
2023-07-10T03:30:45.644Z,100.00
2023-07-10T03:33:53.896Z,99.42
2023-07-10T03:37:02.456Z,99.44
2023-07-10T03:40:10.893Z,98.95
2023-07-10T03:43:25.904Z,99.44
2023-07-10T03:46:40.961Z,98.71
2023-07-10T03:49:48.853Z,98.33
2023-07-10T03:52:57.438Z,98.60
2023-07-10T03:56:06.083Z,98.79
2023-07-10T03:59:20.914Z,98.35
2023-07-10T04:02:29.423Z,98.50
2023-07-10T04:05:37.883Z,97.97
2023-07-10T04:08:53.868Z,98.98
2023-07-10T04:12:01.893Z,98.51
2023-07-10T04:15:10.687Z,97.00
2023-07-10T04:18:37.880Z,97.08
2023-07-10T04:21:52.871Z,97.02
2023-07-10T04:24:54.701Z,97.53
2023-07-10T04:28:09.897Z,98.28
2023-07-10T04:31:26.119Z,97.42
2023-07-10T04:34:34.485Z,96.35
2023-07-10T04:37:42.900Z,97.25
2023-07-10T04:41:03.936Z,94.77
2023-07-10T04:44:12.515Z,93.53
2023-07-10T04:47:26.937Z,93.90
2023-07-10T04:50:34.952Z,94.41
2023-07-10T04:53:49.910Z,95.20
2023-07-10T04:56:57.930Z,95.77
2023-07-10T05:00:07.055Z,95.79
2023-07-10T05:03:21.948Z,94.27
2023-07-10T05:06:24.142Z,94.76
2023-07-10T05:09:38.915Z,93.34
2023-07-10T05:12:46.949Z,91.86
2023-07-10T05:16:09.142Z,92.38
2023-07-10T05:19:17.723Z,90.46
2023-07-10T05:22:25.897Z,90.00
2023-07-10T05:25:40.926Z,92.46
2023-07-10T05:28:49.647Z,90.05
2023-07-10T05:32:05.034Z,87.24
2023-07-10T05:35:13.407Z,87.24
2023-07-10T05:38:21.905Z,85.89
2023-07-10T05:41:36.941Z,86.38
2023-07-10T05:44:44.898Z,85.93
2023-07-10T05:47:53.448Z,86.20
2023-07-10T05:51:02.926Z,87.78
2023-07-10T05:54:18.165Z,83.35
2023-07-10T05:57:26.969Z,83.79
2023-07-10T06:00:35.434Z,83.06
2023-07-10T06:03:52.192Z,83.64
2023-07-10T06:07:00.946Z,81.57
2023-07-10T06:10:15.929Z,80.49
2023-07-10T06:13:31.996Z,81.05
2023-07-10T06:16:46.916Z,82.31
2023-07-10T06:19:55.433Z,79.97
2023-07-10T06:23:03.991Z,81.16
2023-07-10T06:26:12.404Z,78.61
2023-07-10T06:29:26.921Z,80.94
2023-07-10T06:32:35.637Z,77.75
2023-07-10T06:35:50.938Z,74.45
2023-07-10T06:39:05.920Z,74.43
2023-07-10T06:42:20.926Z,77.71
2023-07-10T06:45:22.882Z,72.09
2023-07-10T06:48:37.960Z,73.29
2023-07-10T06:51:46.485Z,69.65
2023-07-10T06:54:54.941Z,70.48
2023-07-10T06:58:09.907Z,69.34
2023-07-10T07:01:11.846Z,68.98
2023-07-10T07:04:26.923Z,68.09
2023-07-10T07:07:34.966Z,66.90
2023-07-10T07:10:51.927Z,67.58
2023-07-10T07:14:00.021Z,67.49
2023-07-10T07:17:15.233Z,66.72
2023-07-10T07:20:29.944Z,67.55
2023-07-10T07:23:37.942Z,65.24
2023-07-10T07:26:46.454Z,65.49
2023-07-10T07:29:56.929Z,65.06
2023-07-10T07:33:05.521Z,63.02
2023-07-10T07:36:19.930Z,62.71
2023-07-10T07:39:28.965Z,62.51
2023-07-10T07:42:37.599Z,62.19
2023-07-10T07:46:01.007Z,60.29
2023-07-10T07:49:08.947Z,59.95
2023-07-10T07:52:17.518Z,58.76
2023-07-10T07:55:31.972Z,59.58
2023-07-10T07:58:41.983Z,58.25
2023-07-10T08:01:53.562Z,55.76
2023-07-10T08:05:16.980Z,57.50
2023-07-10T08:08:26.565Z,55.84
2023-07-10T08:11:41.028Z,56.00
2023-07-10T08:14:49.970Z,55.32
2023-07-10T08:18:05.463Z,55.46
2023-07-10T08:21:21.973Z,55.03
2023-07-10T08:24:37.018Z,54.26
2023-07-10T08:27:45.000Z,52.08
2023-07-10T08:31:01.051Z,50.68
2023-07-10T08:34:09.010Z,51.28
2023-07-10T08:37:23.988Z,50.50
2023-07-10T08:40:45.072Z,49.74
2023-07-10T08:43:53.660Z,47.92
2023-07-10T08:47:25.108Z,48.82
2023-07-10T08:50:41.979Z,48.55
2023-07-10T08:53:56.969Z,46.54
2023-07-10T08:57:26.985Z,47.14
2023-07-10T09:00:41.984Z,44.93
2023-07-10T09:03:59.063Z,45.14
2023-07-10T09:07:02.999Z,44.90
2023-07-10T09:10:27.009Z,45.77
2023-07-10T09:13:39.540Z,44.90
2023-07-10T09:17:03.155Z,43.39
2023-07-10T09:20:12.553Z,41.74
2023-07-10T09:23:26.998Z,41.78
2023-07-10T09:26:43.027Z,39.14
2023-07-10T09:29:59.987Z,39.93
2023-07-10T09:33:16.017Z,40.23
2023-07-10T09:36:31.052Z,40.69
2023-07-10T09:39:40.983Z,41.16
2023-07-10T09:42:56.032Z,41.56
2023-07-10T09:46:05.041Z,41.09
2023-07-10T09:49:25.029Z,41.42
2023-07-10T09:52:41.189Z,41.36
2023-07-10T09:55:56.025Z,41.02
2023-07-10T09:59:23.272Z,40.66
2023-07-10T10:02:52.037Z,41.54
2023-07-10T10:06:05.326Z,40.73
2023-07-10T10:09:33.086Z,40.35
2023-07-10T10:12:40.278Z,40.40
2023-07-10T10:16:01.062Z,39.86
2023-07-10T10:19:26.056Z,41.00
2023-07-10T10:22:41.046Z,40.13
2023-07-10T10:25:59.002Z,39.70
2023-07-10T10:29:20.023Z,38.59
2023-07-10T10:32:57.091Z,39.19
2023-07-10T10:36:44.041Z,38.70
2023-07-10T10:40:05.084Z,37.46
2023-07-10T10:43:41.051Z,37.84
2023-07-10T10:47:14.122Z,37.80
2023-07-10T10:50:56.151Z,38.58
2023-07-10T10:54:35.061Z,37.01
2023-07-10T10:57:51.085Z,37.51
2023-07-10T11:01:16.101Z,35.49
2023-07-10T11:04:31.093Z,36.15
2023-07-10T11:07:41.257Z,37.41
2023-07-10T11:11:00.049Z,38.00
2023-07-10T11:14:10.367Z,36.10
2023-07-10T11:17:25.072Z,35.69
2023-07-10T11:20:40.043Z,36.13
2023-07-10T11:23:49.426Z,36.61
2023-07-10T11:27:17.046Z,36.72
2023-07-10T11:30:31.861Z,36.23
2023-07-10T11:33:50.060Z,35.76
2023-07-10T11:36:52.235Z,36.91
2023-07-10T11:40:33.070Z,37.33
2023-07-10T11:43:55.117Z,38.04
2023-07-10T11:47:06.759Z,37.36
2023-07-10T11:50:42.060Z,37.37
2023-07-10T11:54:28.116Z,37.61
2023-07-10T11:57:37.991Z,37.66
2023-07-10T12:00:53.157Z,35.06
2023-07-10T12:04:12.063Z,33.80
2023-07-10T12:07:27.161Z,34.29
2023-07-10T12:10:33.070Z,34.26
2023-07-10T12:13:48.104Z,36.00
2023-07-10T12:17:37.576Z,35.47
2023-07-10T12:20:40.126Z,34.62
2023-07-10T12:24:02.074Z,35.52
2023-07-10T12:28:17.936Z,32.99
2023-07-10T12:30:57.113Z,34.11
2023-07-10T12:34:12.113Z,34.41
2023-07-10T12:37:16.985Z,33.26
2023-07-10T12:40:34.076Z,34.09
2023-07-10T12:43:43.327Z,34.88
2023-07-10T12:47:04.271Z,35.39
2023-07-10T12:50:19.118Z,36.20
2023-07-10T12:53:33.534Z,35.15
2023-07-10T12:56:48.179Z,34.53
2023-07-10T13:00:01.677Z,35.31
2023-07-10T13:11:00.183Z,36.17
2023-07-10T13:14:23.166Z,36.30
2023-07-10T13:17:29.108Z,35.65
2023-07-10T13:20:51.250Z,34.85
2023-07-10T13:24:00.164Z,35.79
2023-07-10T13:27:16.201Z,35.91
2023-07-10T13:30:32.145Z,35.91
2023-07-10T13:33:41.645Z,35.58
2023-07-10T13:36:56.151Z,36.54
2023-07-10T13:39:58.142Z,35.55
2023-07-10T13:43:22.157Z,36.84
2023-07-10T13:46:42.037Z,35.96
2023-07-10T13:49:44.891Z,35.76
2023-07-10T13:53:00.190Z,35.34
2023-07-10T13:56:08.149Z,35.53
2023-07-10T13:59:18.799Z,35.55
2023-07-10T14:02:39.226Z,34.69
2023-07-10T14:05:42.777Z,34.89
2023-07-10T14:09:02.236Z,34.40
2023-07-10T14:12:15.387Z,34.47
2023-07-10T14:15:30.165Z,31.26
2023-07-10T14:18:45.220Z,34.11
2023-07-10T14:21:53.747Z,33.21
2023-07-10T14:25:02.159Z,34.39
2023-07-10T14:28:13.881Z,33.86
2023-07-10T14:31:22.216Z,34.17
2023-07-10T14:34:37.182Z,33.42
2023-07-10T14:37:46.928Z,33.26
2023-07-10T14:41:03.998Z,33.53
2023-07-10T14:44:20.194Z,32.99
2023-07-10T14:47:40.248Z,32.37
2023-07-10T14:50:50.316Z,32.00
2023-07-10T14:53:59.226Z,32.95
2023-07-10T14:57:26.207Z,33.33
2023-07-10T15:00:34.890Z,33.27
2023-07-10T15:03:43.248Z,33.31
2023-07-10T15:06:51.750Z,34.39
2023-07-10T15:10:01.621Z,34.07
2023-07-10T15:13:25.254Z,33.96
2023-07-10T15:16:40.219Z,34.59
2023-07-10T15:19:55.751Z,35.29
2023-07-10T15:23:06.479Z,35.17
2023-07-10T15:26:15.529Z,35.44
2023-07-10T15:29:31.544Z,36.14
2023-07-10T15:32:39.233Z,36.40
2023-07-10T15:35:54.238Z,36.26
2023-07-10T15:39:03.206Z,36.48
2023-07-10T15:42:16.212Z,36.57
2023-07-10T15:45:35.194Z,36.49
2023-07-10T15:48:43.787Z,37.02
2023-07-10T15:51:53.287Z,36.76
2023-07-10T15:55:36.292Z,36.78
2023-07-10T15:58:44.879Z,35.36
2023-07-10T16:02:00.237Z,34.80
2023-07-10T16:05:27.197Z,34.02
2023-07-10T16:08:43.197Z,34.47
2023-07-10T16:11:53.195Z,34.33
2023-07-10T16:15:01.834Z,34.17
2023-07-10T16:18:21.210Z,35.24
2023-07-10T16:21:37.378Z,34.83
2023-07-10T16:24:39.662Z,34.77
2023-07-10T16:27:54.220Z,35.12
2023-07-10T16:31:02.926Z,35.65
2023-07-10T16:34:11.233Z,35.75
2023-07-10T16:37:26.216Z,36.17
2023-07-10T16:40:34.246Z,37.21
2023-07-10T16:43:49.280Z,37.37
2023-07-10T16:46:57.841Z,39.65
2023-07-10T16:50:13.237Z,38.88
2023-07-10T16:53:29.452Z,38.20
2023-07-10T16:56:44.240Z,39.29
2023-07-10T16:59:59.374Z,38.35
2023-07-10T17:03:08.305Z,39.63
2023-07-10T17:06:25.268Z,37.65
2023-07-10T17:09:40.228Z,37.75
2023-07-10T17:12:48.880Z,38.08
2023-07-10T17:15:59.232Z,37.42
2023-07-10T17:19:14.617Z,37.50
2023-07-10T17:22:39.284Z,36.95
2023-07-10T17:25:49.824Z,37.22
2023-07-10T17:28:58.265Z,37.43
2023-07-10T17:32:15.046Z,37.43
2023-07-10T17:35:30.245Z,36.63
2023-07-10T17:38:40.272Z,36.75
2023-07-10T17:41:51.496Z,36.99
2023-07-10T17:45:00.358Z,37.35
2023-07-10T17:48:26.285Z,37.16
2023-07-10T17:51:35.094Z,37.98
2023-07-10T17:54:51.245Z,40.58
2023-07-10T17:58:18.285Z,41.74
2023-07-10T18:01:28.684Z,42.62
2023-07-10T18:05:02.285Z,42.92
2023-07-10T18:08:24.486Z,43.72
2023-07-10T18:11:41.301Z,44.06
2023-07-10T18:14:51.250Z,50.26
2023-07-10T18:18:18.276Z,50.91
2023-07-10T18:21:29.525Z,53.77
2023-07-10T18:24:38.301Z,51.36
2023-07-10T18:27:47.220Z,56.04
2023-07-10T18:31:06.560Z,58.05
2023-07-10T18:34:27.315Z,64.27
2023-07-10T18:37:36.215Z,67.00
2023-07-10T18:40:45.290Z,67.93
2023-07-10T18:44:03.491Z,63.00
2023-07-10T18:47:21.472Z,62.35
2023-07-10T18:50:25.833Z,58.48
2023-07-10T18:53:41.285Z,58.25
2023-07-10T18:56:56.298Z,56.92
2023-07-10T19:00:08.796Z,60.69
2023-07-10T19:03:19.059Z,60.54
2023-07-10T19:06:51.528Z,62.53
2023-07-10T19:09:54.252Z,59.42
2023-07-10T19:13:19.300Z,59.15
2023-07-10T19:16:36.544Z,57.75
2023-07-10T19:19:54.288Z,58.50
2023-07-10T19:23:02.991Z,59.17
2023-07-10T19:26:19.313Z,56.78
2023-07-10T19:29:28.344Z,56.70
2023-07-10T19:32:36.957Z,58.09
2023-07-10T19:35:52.304Z,59.36
2023-07-10T19:38:55.291Z,60.76
2023-07-10T19:42:10.322Z,60.75
2023-07-10T19:45:19.581Z,61.02
2023-07-10T19:48:31.305Z,61.32
2023-07-10T19:51:40.996Z,62.05
2023-07-10T19:54:57.328Z,62.94
2023-07-10T19:58:19.307Z,63.06
2023-07-10T20:01:27.408Z,63.62
2023-07-10T20:04:36.003Z,63.98
2023-07-10T20:07:44.324Z,63.92
2023-07-10T20:10:53.963Z,64.24
2023-07-10T20:14:02.346Z,65.02
2023-07-10T20:17:45.361Z,67.11
2023-07-10T20:21:01.349Z,66.88
2023-07-10T20:24:20.332Z,68.40
2023-07-10T20:27:28.952Z,69.02
2023-07-10T20:30:37.403Z,68.34
2023-07-10T20:33:47.347Z,68.23
2023-07-10T20:37:02.336Z,70.07
2023-07-10T20:40:22.337Z,70.71
2023-07-10T20:43:28.335Z,71.13
2023-07-10T20:46:43.407Z,71.25
2023-07-10T20:49:45.398Z,71.06
2023-07-10T20:53:00.356Z,69.35
2023-07-10T20:56:26.278Z,66.48
2023-07-10T20:59:41.378Z,65.75
2023-07-10T21:02:50.396Z,68.54
2023-07-10T21:06:08.625Z,68.48
2023-07-10T21:09:32.395Z,69.90
2023-07-10T21:12:41.390Z,70.14
2023-07-10T21:15:50.007Z,70.05
2023-07-10T21:19:20.353Z,68.64
2023-07-10T21:22:35.346Z,68.33
2023-07-10T21:25:50.351Z,71.16
2023-07-10T21:28:54.048Z,71.36
2023-07-10T21:32:09.423Z,70.53
2023-07-10T21:35:32.377Z,69.57
2023-07-10T21:38:40.370Z,73.25
2023-07-10T21:41:55.400Z,73.58
2023-07-10T21:44:57.681Z,73.81
2023-07-10T21:48:22.388Z,74.21
2023-07-10T21:51:31.360Z,74.49
2023-07-10T21:54:40.058Z,74.70
2023-07-10T21:57:49.380Z,75.64
2023-07-10T22:00:58.097Z,75.10
2023-07-10T22:04:16.378Z,74.70
2023-07-10T22:07:18.455Z,74.86
2023-07-10T22:10:33.383Z,75.46
2023-07-10T22:13:42.614Z,76.58
2023-07-10T22:17:02.231Z,76.08
2023-07-10T22:20:34.381Z,76.14
2023-07-10T22:23:43.560Z,76.40
2023-07-10T22:26:58.354Z,77.09
2023-07-10T22:30:06.374Z,76.88
2023-07-10T22:33:23.388Z,77.01
2023-07-10T22:36:31.938Z,78.43
2023-07-10T22:39:46.378Z,79.01
2023-07-10T22:42:55.132Z,79.73
2023-07-10T22:46:19.491Z,79.93
2023-07-10T22:49:28.375Z,80.24
2023-07-10T22:52:37.104Z,80.59
2023-07-10T22:55:46.394Z,81.32
2023-07-10T22:59:01.359Z,80.91
2023-07-10T23:02:10.078Z,82.36
2023-07-10T23:05:18.399Z,84.04
2023-07-10T23:08:26.964Z,84.99
2023-07-10T23:11:35.437Z,86.39
2023-07-10T23:14:50.357Z,86.80
2023-07-10T23:17:58.930Z,87.32
2023-07-10T23:21:21.380Z,87.99
2023-07-10T23:24:23.315Z,87.65
2023-07-10T23:27:38.364Z,87.59
2023-07-10T23:30:53.434Z,88.34
2023-07-10T23:34:01.943Z,88.14
2023-07-10T23:37:10.390Z,87.90
2023-07-10T23:40:23.005Z,88.63
2023-07-10T23:43:37.447Z,87.27
2023-07-10T23:46:46.400Z,87.78
2023-07-10T23:49:55.021Z,86.81
2023-07-10T23:53:09.822Z,86.84
2023-07-10T23:56:24.423Z,86.57
2023-07-10T23:59:42.367Z,86.24
